createdAt,value
2018-09-30T00:01:52.769Z,1.90
2018-09-30T00:04:21.315Z,1.50
2018-09-30T00:06:49.684Z,1.70
2018-09-30T00:09:18.773Z,2.00
2018-09-30T00:11:47.160Z,1.80
2018-09-30T00:14:15.627Z,1.87
2018-09-30T00:16:44.144Z,2.00
2018-09-30T00:19:12.547Z,2.12
2018-09-30T00:21:40.887Z,1.80
2018-09-30T00:24:14.455Z,2.45
2018-09-30T00:26:48.004Z,1.87
2018-09-30T00:29:16.369Z,1.85
2018-09-30T00:31:44.729Z,2.53
2018-09-30T00:34:18.300Z,2.30
2018-09-30T00:36:46.716Z,1.75
2018-09-30T00:39:15.124Z,2.63
2018-09-30T00:41:43.495Z,2.20
2018-09-30T00:44:11.974Z,2.22
2018-09-30T00:46:40.283Z,2.12
2018-09-30T00:49:08.619Z,2.47
2018-09-30T00:51:36.908Z,2.43
2018-09-30T00:54:05.235Z,1.85
2018-09-30T00:56:33.680Z,2.80
2018-09-30T00:59:02.068Z,2.50
2018-09-30T01:01:30.409Z,2.50
2018-09-30T01:03:58.797Z,2.50
2018-09-30T01:06:27.123Z,2.23
2018-09-30T01:08:55.616Z,2.67
2018-09-30T01:11:23.924Z,2.57
2018-09-30T01:13:52.200Z,2.33
2018-09-30T01:16:20.490Z,2.23
2018-09-30T01:18:48.794Z,2.63
2018-09-30T01:21:17.116Z,2.40
2018-09-30T01:23:45.419Z,2.57
2018-09-30T01:26:13.787Z,2.57
2018-09-30T01:28:42.159Z,2.43
2018-09-30T01:31:10.504Z,2.50
2018-09-30T01:33:38.857Z,3.87
2018-09-30T01:36:07.224Z,3.03
2018-09-30T01:38:35.612Z,2.90
2018-09-30T01:41:04.048Z,2.90
2018-09-30T01:43:32.416Z,3.20
2018-09-30T01:46:00.778Z,2.93
2018-09-30T01:48:29.140Z,4.17
2018-09-30T01:50:57.503Z,3.53
2018-09-30T01:53:25.792Z,2.50
2018-09-30T01:55:54.117Z,3.03
2018-09-30T01:58:22.406Z,2.93
2018-09-30T02:00:50.749Z,3.23
2018-09-30T02:03:19.208Z,3.13
2018-09-30T02:05:47.499Z,2.97
2018-09-30T02:08:15.943Z,2.03
2018-09-30T02:10:44.351Z,2.73
2018-09-30T02:13:12.692Z,2.80
2018-09-30T02:15:41.133Z,2.70
2018-09-30T02:18:09.491Z,2.80
2018-09-30T02:20:37.835Z,2.40
2018-09-30T02:23:06.240Z,3.57
2018-09-30T02:25:34.567Z,2.00
2018-09-30T02:28:02.987Z,2.27
2018-09-30T02:30:31.346Z,2.37
2018-09-30T02:32:59.691Z,2.23
2018-09-30T02:35:28.036Z,2.60
2018-09-30T02:37:56.371Z,2.43
2018-09-30T02:40:24.734Z,2.70
2018-09-30T02:42:53.055Z,2.50
2018-09-30T02:45:21.396Z,2.43
2018-09-30T02:47:49.669Z,1.97
2018-09-30T02:50:17.973Z,2.17
2018-09-30T02:52:46.284Z,1.90
2018-09-30T02:55:14.580Z,2.07
2018-09-30T02:57:42.901Z,2.10
2018-09-30T03:00:29.812Z,2.00
2018-09-30T03:02:58.173Z,1.87
2018-09-30T03:05:26.571Z,1.90
2018-09-30T03:08:00.401Z,1.43
2018-09-30T03:10:28.772Z,1.50
2018-09-30T03:12:57.096Z,1.97
2018-09-30T03:15:25.452Z,1.50
2018-09-30T03:17:53.833Z,1.60
2018-09-30T03:20:22.183Z,1.90
2018-09-30T03:22:50.588Z,1.80
2018-09-30T03:25:18.981Z,1.90
2018-09-30T03:27:47.355Z,1.53
2018-09-30T03:30:15.723Z,1.90
2018-09-30T03:32:44.104Z,1.83
2018-09-30T03:35:12.479Z,1.70
2018-09-30T03:37:40.816Z,1.80
2018-09-30T03:40:09.147Z,1.80
2018-09-30T03:42:37.490Z,1.80
2018-09-30T03:45:05.822Z,1.50
2018-09-30T03:47:34.157Z,1.70
2018-09-30T03:50:02.504Z,1.40
2018-09-30T03:52:30.855Z,1.83
2018-09-30T03:54:59.518Z,1.87
2018-09-30T03:57:27.864Z,1.73
2018-09-30T03:59:56.209Z,1.60
2018-09-30T04:02:24.544Z,1.80
2018-09-30T04:04:52.878Z,1.60
2018-09-30T04:07:21.263Z,1.50
2018-09-30T04:09:49.646Z,2.23
2018-09-30T04:12:17.981Z,1.83
2018-09-30T04:14:46.300Z,1.70
2018-09-30T04:17:14.781Z,1.70
2018-09-30T04:19:43.056Z,1.80
2018-09-30T04:22:11.332Z,1.90
2018-09-30T04:24:39.640Z,2.13
2018-09-30T04:27:07.932Z,1.60
2018-09-30T04:29:36.245Z,1.30
2018-09-30T04:32:04.590Z,2.63
2018-09-30T04:34:32.930Z,1.80
2018-09-30T04:37:01.212Z,1.77
2018-09-30T04:39:29.514Z,1.80
2018-09-30T04:41:57.792Z,1.50
2018-09-30T04:44:26.071Z,1.70
2018-09-30T04:46:54.512Z,1.83
2018-09-30T04:49:22.886Z,1.43
2018-09-30T04:51:51.220Z,1.70
2018-09-30T04:54:19.569Z,1.60
2018-09-30T04:56:47.901Z,1.57
2018-09-30T04:59:16.289Z,1.90
2018-09-30T05:01:44.580Z,1.77
2018-09-30T05:04:12.875Z,1.50
2018-09-30T05:06:41.227Z,1.50
2018-09-30T05:09:09.726Z,1.30
2018-09-30T05:11:38.004Z,1.63
2018-09-30T05:14:06.287Z,1.50
2018-09-30T05:16:34.671Z,1.23
2018-09-30T05:19:02.896Z,2.07
2018-09-30T05:21:31.187Z,1.40
2018-09-30T05:23:59.488Z,1.70
2018-09-30T05:26:27.949Z,1.40
2018-09-30T05:28:56.280Z,1.80
2018-09-30T05:31:24.676Z,1.60
2018-09-30T05:33:53.008Z,1.20
2018-09-30T05:36:21.397Z,1.40
2018-09-30T05:38:49.793Z,1.40
2018-09-30T05:41:18.158Z,1.20
2018-09-30T05:43:46.551Z,1.73
2018-09-30T05:46:14.903Z,1.40
2018-09-30T05:48:43.241Z,1.40
2018-09-30T05:51:11.579Z,1.50
2018-09-30T05:53:39.908Z,1.47
2018-09-30T05:56:08.235Z,1.10
2018-09-30T05:58:36.570Z,1.70
2018-09-30T06:01:04.909Z,1.50
2018-09-30T06:03:33.261Z,1.70
2018-09-30T06:06:01.569Z,1.47
2018-09-30T06:08:30.072Z,1.50
2018-09-30T06:10:58.376Z,1.83
2018-09-30T06:13:26.720Z,1.67
2018-09-30T06:15:55.045Z,1.80
2018-09-30T06:18:23.424Z,1.50
2018-09-30T06:20:51.808Z,1.97
2018-09-30T06:23:20.232Z,1.70
2018-09-30T06:25:48.575Z,1.80
2018-09-30T06:28:16.948Z,1.37
2018-09-30T06:30:45.299Z,1.70
2018-09-30T06:33:13.661Z,1.40
2018-09-30T06:35:42.095Z,1.50
2018-09-30T06:38:10.436Z,1.60
2018-09-30T06:40:38.776Z,1.70
2018-09-30T06:43:07.157Z,2.07
2018-09-30T06:45:35.584Z,1.60
2018-09-30T06:48:03.828Z,1.70
2018-09-30T06:50:32.611Z,1.10
2018-09-30T06:53:01.052Z,1.60
2018-09-30T06:55:29.347Z,1.87
2018-09-30T06:57:57.704Z,2.07
2018-09-30T07:00:26.032Z,2.00
2018-09-30T07:02:54.411Z,2.13
2018-09-30T07:05:22.844Z,1.40
2018-09-30T07:07:51.222Z,1.70
2018-09-30T07:10:19.544Z,1.90
2018-09-30T07:12:47.846Z,1.77
2018-09-30T07:15:16.185Z,1.77
2018-09-30T07:17:44.475Z,1.83
2018-09-30T07:20:12.809Z,1.60
2018-09-30T07:22:41.245Z,2.10
2018-09-30T07:25:09.456Z,1.90
2018-09-30T07:27:37.751Z,1.90
2018-09-30T07:30:06.164Z,2.20
2018-09-30T07:32:34.508Z,1.87
2018-09-30T07:35:02.857Z,2.30
2018-09-30T07:37:31.139Z,2.03
2018-09-30T07:39:59.480Z,1.80
2018-09-30T07:42:27.767Z,1.80
2018-09-30T07:44:56.072Z,1.90
2018-09-30T07:47:24.368Z,1.63
2018-09-30T07:49:52.719Z,2.23
2018-09-30T07:52:21.007Z,1.63
2018-09-30T07:54:49.312Z,2.40
2018-09-30T07:57:17.631Z,2.13
2018-09-30T07:59:45.960Z,1.80
2018-09-30T08:02:14.337Z,2.30
2018-09-30T08:04:42.668Z,1.70
2018-09-30T08:07:11.008Z,1.83
2018-09-30T08:09:39.380Z,1.60
2018-09-30T08:12:07.704Z,1.67
2018-09-30T08:14:36.018Z,2.30
2018-09-30T08:17:04.387Z,1.63
2018-09-30T08:19:32.684Z,1.50
2018-09-30T08:22:01.048Z,2.10
2018-09-30T08:24:29.443Z,1.83
2018-09-30T08:26:57.757Z,2.10
2018-09-30T08:29:26.085Z,1.53
2018-09-30T08:31:54.437Z,1.63
2018-09-30T08:34:22.769Z,2.10
2018-09-30T08:36:51.095Z,1.73
2018-09-30T08:39:19.457Z,1.50
2018-09-30T08:41:47.775Z,1.70
2018-09-30T08:44:16.175Z,2.20
2018-09-30T08:46:44.566Z,1.53
2018-09-30T08:49:19.453Z,2.23
2018-09-30T08:51:47.734Z,1.63
2018-09-30T08:54:16.073Z,1.60
2018-09-30T08:56:44.420Z,1.77
2018-09-30T08:59:12.780Z,1.93
2018-09-30T09:01:41.131Z,1.80
2018-09-30T09:04:09.480Z,1.97
2018-09-30T09:06:37.825Z,1.70
2018-09-30T09:09:09.373Z,2.37
2018-09-30T09:11:37.719Z,1.60
2018-09-30T09:14:06.116Z,1.93
2018-09-30T09:16:34.463Z,1.70
2018-09-30T09:19:02.791Z,1.90
2018-09-30T09:21:31.121Z,1.43
2018-09-30T09:23:59.448Z,1.87
2018-09-30T09:26:27.769Z,1.83
2018-09-30T09:28:56.107Z,1.80
2018-09-30T09:31:24.487Z,1.60
2018-09-30T09:33:52.823Z,1.53
2018-09-30T09:36:21.184Z,1.77
2018-09-30T09:38:49.532Z,1.93
2018-09-30T09:41:17.908Z,1.93
2018-09-30T09:43:46.332Z,1.73
2018-09-30T09:46:14.684Z,2.33
2018-09-30T09:48:42.999Z,1.90
2018-09-30T09:51:12.353Z,1.70
2018-09-30T09:53:40.664Z,1.90
2018-09-30T09:56:08.975Z,1.50
2018-09-30T09:58:37.332Z,1.70
2018-09-30T10:01:06.194Z,1.90
2018-09-30T10:03:34.488Z,1.93
2018-09-30T10:06:02.809Z,1.97
2018-09-30T10:08:31.121Z,2.00
2018-09-30T10:10:59.512Z,2.00
2018-09-30T10:13:27.940Z,1.80
2018-09-30T10:15:56.413Z,1.73
2018-09-30T10:18:24.952Z,1.80
2018-09-30T10:20:53.393Z,1.23
2018-09-30T10:23:21.861Z,1.87
2018-09-30T10:25:50.378Z,1.77
2018-09-30T10:28:18.839Z,1.80
2018-09-30T10:30:47.252Z,1.47
2018-09-30T10:33:15.744Z,1.50
2018-09-30T10:35:44.151Z,1.40
2018-09-30T10:38:12.603Z,1.90
2018-09-30T10:40:41.075Z,1.17
2018-09-30T10:43:09.481Z,1.70
2018-09-30T10:45:37.866Z,1.83
2018-09-30T10:48:06.510Z,1.83
2018-09-30T10:50:34.899Z,2.00
2018-09-30T10:53:03.276Z,2.00
2018-09-30T10:55:31.648Z,2.23
2018-09-30T10:58:00.089Z,1.50
2018-09-30T11:00:28.539Z,1.80
2018-09-30T11:02:56.924Z,1.50
2018-09-30T11:05:25.416Z,2.67
2018-09-30T11:07:53.835Z,2.23
2018-09-30T11:10:22.449Z,1.40
2018-09-30T11:12:50.848Z,5.40
2018-09-30T11:15:20.061Z,2.20
2018-09-30T11:17:48.494Z,1.93
2018-09-30T11:20:17.072Z,1.57
2018-09-30T11:22:45.568Z,1.70
2018-09-30T11:25:14.281Z,1.20
2018-09-30T11:27:42.700Z,1.63
2018-09-30T11:30:11.137Z,1.37
2018-09-30T11:32:39.523Z,1.50
2018-09-30T11:35:07.937Z,1.77
2018-09-30T11:37:36.380Z,1.60
2018-09-30T11:40:05.220Z,1.60
2018-09-30T11:42:33.715Z,1.20
2018-09-30T11:45:02.181Z,0.97
2018-09-30T11:47:30.589Z,1.30
2018-09-30T11:49:58.987Z,1.20
2018-09-30T11:52:27.450Z,1.33
2018-09-30T11:54:55.881Z,0.93
2018-09-30T11:57:24.352Z,1.40
2018-09-30T11:59:52.768Z,1.20
2018-09-30T12:02:21.173Z,1.50
2018-09-30T12:04:49.573Z,0.87
2018-09-30T12:07:17.997Z,1.33
2018-09-30T12:09:46.433Z,1.10
2018-09-30T12:12:14.950Z,1.00
2018-09-30T12:14:43.390Z,1.13
2018-09-30T12:17:11.920Z,1.30
2018-09-30T12:19:40.382Z,1.30
2018-09-30T12:22:08.845Z,1.30
2018-09-30T12:24:37.376Z,1.07
2018-09-30T12:27:05.854Z,1.20
2018-09-30T12:29:34.384Z,1.03
2018-09-30T12:32:02.790Z,1.47
2018-09-30T12:34:31.165Z,1.40
2018-09-30T12:36:59.664Z,1.50
2018-09-30T12:39:28.237Z,1.47
2018-09-30T12:41:56.631Z,1.33
2018-09-30T12:44:25.124Z,1.20
2018-09-30T12:46:53.553Z,2.23
2018-09-30T12:49:21.941Z,1.50
2018-09-30T12:51:50.372Z,1.50
2018-09-30T12:54:18.860Z,1.70
2018-09-30T12:56:47.292Z,1.77
2018-09-30T12:59:15.761Z,1.20
2018-09-30T13:01:44.209Z,1.53
2018-09-30T13:04:12.725Z,2.20
2018-09-30T13:06:41.140Z,1.60
2018-09-30T13:09:10.228Z,1.93
2018-09-30T13:11:38.807Z,1.90
2018-09-30T13:14:07.508Z,1.63
2018-09-30T13:16:36.021Z,2.03
2018-09-30T13:19:04.464Z,1.80
2018-09-30T13:21:32.937Z,1.80
2018-09-30T13:24:01.404Z,1.63
2018-09-30T13:26:29.851Z,1.60
2018-09-30T13:28:58.349Z,1.50
2018-09-30T13:31:26.755Z,1.20
2018-09-30T13:33:55.300Z,1.37
2018-09-30T13:36:23.720Z,1.40
2018-09-30T13:38:52.119Z,1.17
2018-09-30T13:41:20.645Z,1.80
2018-09-30T13:43:49.127Z,1.47
2018-09-30T13:46:17.679Z,1.50
2018-09-30T13:48:46.032Z,1.57
2018-09-30T13:51:14.629Z,2.10
2018-09-30T13:53:42.983Z,1.77
2018-09-30T13:56:11.452Z,1.73
2018-09-30T13:58:39.802Z,1.77
2018-09-30T14:01:08.284Z,1.93
2018-09-30T14:03:36.664Z,1.97
2018-09-30T14:06:05.092Z,1.60
2018-09-30T14:08:33.460Z,1.33
2018-09-30T14:11:01.904Z,1.90
2018-09-30T14:13:30.280Z,1.77
2018-09-30T14:15:58.801Z,1.60
2018-09-30T14:18:27.289Z,2.20
2018-09-30T14:20:55.784Z,1.77
2018-09-30T14:23:24.185Z,2.13
2018-09-30T14:25:52.515Z,1.90
2018-09-30T14:28:20.929Z,1.70
2018-09-30T14:30:49.539Z,1.80
2018-09-30T14:33:18.002Z,1.77
2018-09-30T14:35:46.735Z,1.33
2018-09-30T14:38:15.397Z,1.70
2018-09-30T14:40:43.988Z,2.10
2018-09-30T14:43:12.470Z,2.40
2018-09-30T14:45:40.969Z,1.93
2018-09-30T14:48:09.655Z,2.20
2018-09-30T14:50:38.071Z,1.67
2018-09-30T14:53:06.646Z,1.73
2018-09-30T14:55:35.091Z,2.23
2018-09-30T14:58:03.526Z,1.90
2018-09-30T15:00:32.108Z,1.97
2018-09-30T15:03:00.636Z,2.27
2018-09-30T15:05:29.133Z,1.70
2018-09-30T15:07:57.564Z,2.10
2018-09-30T15:10:26.223Z,1.73
2018-09-30T15:12:54.571Z,1.70
2018-09-30T15:15:23.177Z,2.07
2018-09-30T15:17:51.627Z,1.70
2018-09-30T15:20:20.141Z,1.70
2018-09-30T15:22:48.556Z,1.70
2018-09-30T15:25:17.060Z,2.10
2018-09-30T15:27:45.508Z,1.70
2018-09-30T15:30:14.030Z,2.20
2018-09-30T15:32:42.490Z,2.47
2018-09-30T15:35:10.951Z,2.50
2018-09-30T15:37:39.413Z,2.50
2018-09-30T15:40:07.907Z,2.10
2018-09-30T15:42:36.340Z,2.60
2018-09-30T15:45:04.764Z,2.20
2018-09-30T15:47:33.330Z,3.00
2018-09-30T15:50:01.784Z,2.10
2018-09-30T15:52:30.932Z,2.37
2018-09-30T15:54:59.249Z,2.20
2018-09-30T15:57:27.568Z,2.17
2018-09-30T15:59:56.041Z,5.33
2018-09-30T16:02:24.419Z,2.70
2018-09-30T16:04:52.885Z,2.20
2018-09-30T16:07:21.376Z,2.30
2018-09-30T16:09:49.948Z,2.30
2018-09-30T16:12:18.543Z,2.10
2018-09-30T16:14:46.953Z,3.00
2018-09-30T16:17:15.389Z,2.87
2018-09-30T16:19:43.856Z,2.47
2018-09-30T16:22:12.323Z,2.60
2018-09-30T16:24:40.867Z,2.53
2018-09-30T16:27:09.485Z,2.67
2018-09-30T16:29:37.893Z,2.50
2018-09-30T16:32:06.308Z,2.27
2018-09-30T16:34:34.724Z,2.50
2018-09-30T16:37:03.164Z,2.70
2018-09-30T16:39:31.761Z,2.70
2018-09-30T16:42:00.173Z,2.57
2018-09-30T16:44:28.621Z,2.33
2018-09-30T16:46:57.089Z,2.70
2018-09-30T16:49:25.567Z,2.67
2018-09-30T16:51:53.978Z,2.30
2018-09-30T16:54:22.422Z,2.77
2018-09-30T16:56:50.926Z,2.50
2018-09-30T16:59:19.363Z,2.53
2018-09-30T17:01:47.855Z,2.80
2018-09-30T17:04:16.435Z,2.57
2018-09-30T17:06:45.201Z,2.30
2018-09-30T17:09:13.705Z,2.47
2018-09-30T17:11:42.403Z,2.27
2018-09-30T17:14:10.892Z,3.10
2018-09-30T17:17:16.129Z,2.60
2018-09-30T17:19:44.560Z,2.40
2018-09-30T17:22:13.416Z,2.90
2018-09-30T17:24:41.908Z,3.30
2018-09-30T17:27:10.705Z,2.90
2018-09-30T17:29:39.263Z,3.27
2018-09-30T17:32:08.065Z,3.80
2018-09-30T17:34:36.565Z,4.60
2018-09-30T17:37:05.118Z,4.30
2018-09-30T17:39:34.600Z,3.17
2018-09-30T17:42:03.104Z,3.93
2018-09-30T17:44:31.536Z,4.00
2018-09-30T17:46:59.977Z,3.53
2018-09-30T17:49:28.381Z,3.60
2018-09-30T17:51:58.928Z,3.20
2018-09-30T17:54:27.368Z,2.97
2018-09-30T17:56:56.345Z,2.87
2018-09-30T17:59:24.831Z,3.33
2018-09-30T18:01:53.257Z,3.20
2018-09-30T18:04:21.693Z,3.60
2018-09-30T18:06:50.188Z,3.50
2018-09-30T18:09:18.622Z,3.40
2018-09-30T18:11:47.080Z,2.70
2018-09-30T18:14:15.676Z,3.40
2018-09-30T18:16:47.456Z,3.33
2018-09-30T18:19:15.928Z,2.70
2018-09-30T18:21:44.434Z,3.07
2018-09-30T18:24:13.047Z,2.90
2018-09-30T18:26:41.508Z,3.00
2018-09-30T18:29:09.954Z,2.50
2018-09-30T18:31:38.496Z,4.07
2018-09-30T18:34:06.895Z,3.20
2018-09-30T18:36:35.307Z,2.93
2018-09-30T18:39:04.680Z,3.50
2018-09-30T18:41:33.098Z,2.37
2018-09-30T18:44:01.524Z,3.00
2018-09-30T18:46:29.976Z,2.90
2018-09-30T18:48:58.380Z,3.10
2018-09-30T18:51:26.823Z,2.83
2018-09-30T18:53:55.288Z,2.70
2018-09-30T18:56:23.760Z,2.77
2018-09-30T18:58:52.164Z,2.93
2018-09-30T19:01:20.591Z,3.23
2018-09-30T19:03:49.100Z,3.57
2018-09-30T19:06:17.760Z,3.57
2018-09-30T19:08:46.260Z,3.17
2018-09-30T19:11:14.798Z,2.80
2018-09-30T19:13:43.227Z,3.13
2018-09-30T19:16:11.787Z,3.30
2018-09-30T19:18:40.168Z,3.53
2018-09-30T19:21:08.641Z,2.87
2018-09-30T19:23:37.075Z,2.97
2018-09-30T19:26:05.514Z,3.20
2018-09-30T19:28:34.120Z,3.00
2018-09-30T19:31:02.560Z,3.13
2018-09-30T19:33:30.960Z,3.63
2018-09-30T19:35:59.431Z,4.07
2018-09-30T19:38:27.924Z,3.43
2018-09-30T19:40:56.277Z,3.80
2018-09-30T19:43:24.692Z,3.33
2018-09-30T19:45:53.176Z,3.00
2018-09-30T19:48:21.749Z,3.30
2018-09-30T19:50:50.096Z,3.77
2018-09-30T19:53:18.555Z,4.20
2018-09-30T19:55:46.960Z,4.43
2018-09-30T19:58:15.451Z,4.10
2018-09-30T20:00:43.871Z,4.70
2018-09-30T20:03:12.364Z,3.93
2018-09-30T20:05:47.738Z,4.10
2018-09-30T20:08:16.331Z,4.30
2018-09-30T20:10:44.617Z,4.40
2018-09-30T20:13:13.084Z,4.30
2018-09-30T20:15:41.576Z,4.07
2018-09-30T20:18:09.996Z,4.90
2018-09-30T20:20:38.481Z,3.93
2018-09-30T20:23:06.912Z,4.00
2018-09-30T20:25:35.320Z,5.37
2018-09-30T20:28:03.751Z,4.13
2018-09-30T20:30:32.160Z,4.50
2018-09-30T20:33:00.580Z,5.10
2018-09-30T20:35:28.979Z,4.10
2018-09-30T20:37:57.556Z,5.00
2018-09-30T20:40:26.052Z,4.60
2018-09-30T20:42:54.451Z,5.30
2018-09-30T20:45:22.902Z,5.00
2018-09-30T20:47:51.324Z,4.33
2018-09-30T20:50:19.751Z,4.23
2018-09-30T20:52:48.156Z,4.87
2018-09-30T20:55:16.581Z,4.13
2018-09-30T20:57:45.035Z,4.27
2018-09-30T21:00:13.605Z,4.40
2018-09-30T21:02:41.975Z,4.73
2018-09-30T21:05:23.793Z,4.57
2018-09-30T21:07:52.288Z,4.53
2018-09-30T21:10:20.841Z,4.80
2018-09-30T21:12:49.261Z,4.97
2018-09-30T21:15:17.608Z,4.80
2018-09-30T21:17:46.032Z,4.43
2018-09-30T21:20:14.705Z,4.93
2018-09-30T21:22:43.116Z,4.80
2018-09-30T21:25:11.544Z,5.03
2018-09-30T21:27:39.952Z,4.17
2018-09-30T21:30:08.436Z,5.30
2018-09-30T21:32:36.884Z,4.97
2018-09-30T21:35:05.267Z,4.80
2018-09-30T21:37:33.732Z,5.27
2018-09-30T21:40:02.359Z,5.27
2018-09-30T21:42:30.704Z,4.50
2018-09-30T21:44:59.087Z,5.47
2018-09-30T21:47:27.445Z,5.20
2018-09-30T21:49:55.896Z,6.20
2018-09-30T21:52:24.300Z,5.17
2018-09-30T21:54:52.756Z,5.20
2018-09-30T21:57:21.221Z,6.40
2018-09-30T21:59:49.669Z,5.70
2018-09-30T22:02:18.080Z,6.63
2018-09-30T22:04:46.484Z,5.23
2018-09-30T22:07:14.888Z,5.10
2018-09-30T22:09:43.324Z,5.60
2018-09-30T22:12:11.726Z,5.70
2018-09-30T22:14:40.066Z,5.20
2018-09-30T22:17:08.472Z,6.10
2018-09-30T22:19:36.827Z,6.20
2018-09-30T22:22:05.240Z,5.10
2018-09-30T22:24:33.622Z,6.03
2018-09-30T22:27:02.027Z,5.87
2018-09-30T22:29:30.332Z,5.77
2018-09-30T22:31:58.720Z,5.70
2018-09-30T22:34:27.104Z,5.80
2018-09-30T22:36:55.644Z,5.33
2018-09-30T22:39:24.042Z,5.00
2018-09-30T22:41:52.519Z,6.00
2018-09-30T22:44:20.981Z,6.03
2018-09-30T22:46:49.360Z,5.10
2018-09-30T22:49:17.745Z,6.37
2018-09-30T22:51:46.068Z,6.27
2018-09-30T22:54:14.397Z,6.10
2018-09-30T22:56:42.741Z,5.40
2018-09-30T22:59:11.110Z,6.40
2018-09-30T23:01:39.509Z,5.83
2018-09-30T23:04:07.853Z,6.43
2018-09-30T23:06:36.281Z,6.17
2018-09-30T23:09:06.076Z,5.90
2018-09-30T23:11:34.545Z,6.80
2018-09-30T23:14:02.864Z,6.80
2018-09-30T23:16:31.301Z,6.00
2018-09-30T23:18:59.687Z,6.17
2018-09-30T23:21:28.237Z,6.17
2018-09-30T23:23:56.548Z,6.30
2018-09-30T23:26:24.902Z,6.07
2018-09-30T23:28:53.327Z,7.40
2018-09-30T23:31:21.673Z,6.30
2018-09-30T23:33:50.240Z,6.40
2018-09-30T23:36:18.584Z,6.70
2018-09-30T23:38:47.068Z,6.63
2018-09-30T23:41:15.406Z,7.07
2018-09-30T23:43:43.747Z,6.03
2018-09-30T23:46:12.126Z,6.47
2018-09-30T23:48:40.537Z,6.57
2018-09-30T23:51:08.889Z,5.90
2018-09-30T23:56:20.475Z,6.97
2018-09-30T23:58:49.180Z,7.03
